createdAt,value
2023-05-06T08:01:12.052Z,25.00
2023-05-06T08:02:11.964Z,25.00
2023-05-06T08:03:12.001Z,25.00
2023-05-06T08:04:12.044Z,25.00
2023-05-06T08:05:12.183Z,25.00
2023-05-06T08:06:11.919Z,25.00
2023-05-06T08:07:11.915Z,0.00
2023-05-06T08:08:11.886Z,0.00
2023-05-06T08:09:14.769Z,0.00
2023-05-06T08:10:12.905Z,0.00
2023-05-06T08:11:11.898Z,0.00
2023-05-06T08:12:11.866Z,0.00
2023-05-06T08:13:11.909Z,0.00
2023-05-06T08:14:11.854Z,0.00
2023-05-06T08:15:12.051Z,0.00
2023-05-06T08:16:11.849Z,0.00
2023-05-06T08:17:11.908Z,0.00
2023-05-06T08:18:21.854Z,0.00
2023-05-06T08:19:12.833Z,0.00
2023-05-06T08:20:11.805Z,0.00
2023-05-06T08:21:11.832Z,0.00
2023-05-06T08:22:11.818Z,0.00
2023-05-06T08:23:11.816Z,0.00
2023-05-06T08:24:11.812Z,0.00
2023-05-06T08:25:12.044Z,0.00
2023-05-06T08:26:11.764Z,0.00
2023-05-06T08:27:11.775Z,0.00
2023-05-06T08:28:11.768Z,0.00
2023-05-06T08:29:11.746Z,0.00
2023-05-06T08:30:11.758Z,0.00
2023-05-06T08:31:11.817Z,0.00
2023-05-06T08:32:11.762Z,0.00
2023-05-06T08:33:11.802Z,0.00
2023-05-06T08:34:11.740Z,0.00
2023-05-06T08:35:12.113Z,0.00
2023-05-06T08:36:11.804Z,0.00
2023-05-06T08:37:11.812Z,0.00
2023-05-06T08:38:11.841Z,0.00
2023-05-06T08:39:11.861Z,0.00
2023-05-06T08:40:11.903Z,0.00
2023-05-06T08:41:11.936Z,0.00
2023-05-06T08:42:11.909Z,0.00
2023-05-06T08:43:11.960Z,0.00
2023-05-06T08:44:11.999Z,0.00
2023-05-06T08:45:12.129Z,0.00
2023-05-06T08:46:12.039Z,0.00
2023-05-06T08:47:11.989Z,9.67
2023-05-06T08:48:12.020Z,27.14
2023-05-06T08:49:12.072Z,25.06
2023-05-06T08:50:12.038Z,27.50
2023-05-06T08:51:12.030Z,25.23
2023-05-06T08:52:12.064Z,27.11
2023-05-06T08:53:12.094Z,26.10
2023-05-06T08:54:12.079Z,24.71
2023-05-06T08:55:12.381Z,27.66
2023-05-06T08:56:12.119Z,26.47
2023-05-06T08:57:12.550Z,27.41
2023-05-06T08:58:12.142Z,25.13
2023-05-06T08:59:12.173Z,28.15
2023-05-06T09:00:12.177Z,25.80
2023-05-06T09:01:12.326Z,25.00
2023-05-06T09:02:12.264Z,27.89
2023-05-06T09:03:12.302Z,26.56
2023-05-06T09:04:12.258Z,26.63
2023-05-06T09:05:12.532Z,25.00
2023-05-06T09:06:12.251Z,27.67
2023-05-06T09:07:12.280Z,25.00
2023-05-06T09:08:12.281Z,27.03
2023-05-06T09:09:12.295Z,25.56
2023-05-06T09:10:12.414Z,25.00
2023-05-06T09:11:12.313Z,28.00
2023-05-06T09:12:12.335Z,29.59
2023-05-06T09:13:12.415Z,28.08
2023-05-06T09:14:12.375Z,27.19
2023-05-06T09:15:12.648Z,27.27
2023-05-06T09:16:12.413Z,25.92
2023-05-06T09:17:12.377Z,28.48
2023-05-06T09:18:12.462Z,29.29
2023-05-06T09:19:12.399Z,25.81
2023-05-06T09:20:12.414Z,25.00
2023-05-06T09:21:12.409Z,25.53
2023-05-06T09:22:12.419Z,26.36
2023-05-06T09:23:12.453Z,28.59
2023-05-06T09:24:12.468Z,27.03
2023-05-06T09:25:12.721Z,25.46
2023-05-06T09:26:12.458Z,27.26
2023-05-06T09:27:13.927Z,29.31
2023-05-06T09:28:12.482Z,30.37
2023-05-06T09:29:12.438Z,28.65
2023-05-06T09:30:12.623Z,26.43
2023-05-06T09:31:12.478Z,28.05
2023-05-06T09:32:12.418Z,26.75
2023-05-06T09:33:12.596Z,29.29
2023-05-06T09:34:12.407Z,29.61
2023-05-06T09:35:12.686Z,27.11
2023-05-06T09:36:12.393Z,26.84
2023-05-06T09:37:12.379Z,26.52
2023-05-06T09:38:12.404Z,25.20
2023-05-06T09:39:12.370Z,25.94
2023-05-06T09:40:12.382Z,26.28
2023-05-06T09:41:12.363Z,25.71
2023-05-06T09:42:12.349Z,27.57
2023-05-06T09:43:12.317Z,26.37
2023-05-06T09:44:12.334Z,27.88
2023-05-06T09:45:12.499Z,28.03
2023-05-06T09:46:12.349Z,31.24
2023-05-06T09:47:12.327Z,28.79
2023-05-06T09:48:12.326Z,29.48
2023-05-06T09:49:12.274Z,29.30
2023-05-06T09:50:12.300Z,29.23
2023-05-06T09:51:12.313Z,28.48
2023-05-06T09:52:12.287Z,27.01
2023-05-06T09:53:12.318Z,30.17
2023-05-06T09:54:12.258Z,33.35
2023-05-06T09:55:12.513Z,33.01
2023-05-06T09:56:12.267Z,30.68
2023-05-06T09:57:12.265Z,29.75
2023-05-06T09:58:12.247Z,29.84
2023-05-06T09:59:12.231Z,30.47
2023-05-06T10:00:12.240Z,26.62
2023-05-06T10:01:15.152Z,27.93
2023-05-06T10:02:13.283Z,28.26
2023-05-06T10:03:12.333Z,29.13
2023-05-06T10:04:12.345Z,28.52
2023-05-06T10:05:12.686Z,28.81
2023-05-06T10:06:12.180Z,28.07
2023-05-06T10:07:12.198Z,29.63
2023-05-06T10:08:12.175Z,26.48
2023-05-06T10:09:12.198Z,28.87
2023-05-06T10:10:12.237Z,28.33
2023-05-06T10:11:12.147Z,27.63
2023-05-06T10:12:12.144Z,30.01
2023-05-06T10:13:12.199Z,29.50
2023-05-06T10:14:12.114Z,26.83
2023-05-06T10:15:12.423Z,28.70
2023-05-06T10:16:14.552Z,28.19
2023-05-06T10:17:12.110Z,28.33
2023-05-06T10:18:12.131Z,28.24
2023-05-06T10:19:12.117Z,27.32
2023-05-06T10:20:12.075Z,26.48
2023-05-06T10:21:12.083Z,26.01
2023-05-06T10:22:12.072Z,27.95
2023-05-06T10:23:12.090Z,28.22
2023-05-06T10:24:12.066Z,28.69
2023-05-06T10:25:12.250Z,28.48
2023-05-06T10:26:12.071Z,29.78
2023-05-06T10:27:12.055Z,27.37
2023-05-06T10:28:14.679Z,29.85
2023-05-06T10:29:13.019Z,30.12
2023-05-06T10:30:12.016Z,30.04
2023-05-06T10:31:12.031Z,30.74
2023-05-06T10:32:12.003Z,29.69
2023-05-06T10:33:12.032Z,28.47
2023-05-06T10:34:12.022Z,28.02
2023-05-06T10:35:12.222Z,26.06
2023-05-06T10:36:11.994Z,27.30
2023-05-06T10:37:11.987Z,28.69
2023-05-06T10:38:11.953Z,29.46
2023-05-06T10:39:11.955Z,28.52
2023-05-06T10:40:11.963Z,27.69
2023-05-06T10:41:11.958Z,30.56
2023-05-06T10:42:11.949Z,27.27
2023-05-06T10:43:11.969Z,29.41
2023-05-06T10:44:11.945Z,30.84
2023-05-06T10:45:12.052Z,31.45
2023-05-06T10:46:12.001Z,28.88
2023-05-06T10:47:11.907Z,26.04
2023-05-06T10:48:11.962Z,27.43
2023-05-06T10:49:11.906Z,30.65
2023-05-06T10:50:11.943Z,31.24
2023-05-06T10:51:11.909Z,27.19
2023-05-06T10:52:11.936Z,30.60
2023-05-06T10:53:11.902Z,29.89
2023-05-06T10:54:11.898Z,30.44
2023-05-06T10:55:12.147Z,29.30
2023-05-06T10:56:11.843Z,27.88
2023-05-06T10:57:11.860Z,27.16
2023-05-06T10:58:11.870Z,32.11
2023-05-06T10:59:11.871Z,29.79
2023-05-06T11:00:11.869Z,29.14
2023-05-06T11:01:11.867Z,29.42
2023-05-06T11:02:11.838Z,26.76
2023-05-06T11:03:11.902Z,29.64
2023-05-06T11:04:11.837Z,32.14
2023-05-06T11:05:12.072Z,29.35
2023-05-06T11:06:11.820Z,27.19
2023-05-06T11:07:11.810Z,30.08
2023-05-06T11:08:11.823Z,30.82
2023-05-06T11:09:11.793Z,29.79
2023-05-06T11:10:11.801Z,26.97
2023-05-06T11:11:11.816Z,29.52
2023-05-06T11:12:11.775Z,30.35
2023-05-06T11:13:11.870Z,28.68
2023-05-06T11:14:11.829Z,30.49
2023-05-06T11:15:11.994Z,34.83
2023-05-06T11:16:11.914Z,28.68
2023-05-06T11:17:11.906Z,32.02
2023-05-06T11:18:11.959Z,31.81
2023-05-06T11:19:11.978Z,28.89
2023-05-06T11:20:12.238Z,32.26
2023-05-06T11:21:12.058Z,29.89
2023-05-06T11:22:12.092Z,31.40
2023-05-06T11:23:12.075Z,31.28
2023-05-06T11:24:12.155Z,30.13
2023-05-06T11:25:12.194Z,31.32
2023-05-06T11:26:12.213Z,30.89
2023-05-06T11:27:12.283Z,30.72
2023-05-06T11:28:12.318Z,32.03
2023-05-06T11:29:12.371Z,29.31
2023-05-06T11:30:12.452Z,29.40
2023-05-06T11:31:12.415Z,29.06
2023-05-06T11:32:12.421Z,25.53
2023-05-06T11:33:12.423Z,27.96
2023-05-06T11:34:12.499Z,26.53
2023-05-06T11:35:12.571Z,26.35
2023-05-06T11:36:12.598Z,30.03
2023-05-06T11:37:12.639Z,29.13
2023-05-06T11:38:12.760Z,30.50
2023-05-06T11:39:12.694Z,29.99
2023-05-06T11:40:12.785Z,30.76
2023-05-06T11:41:12.861Z,28.84
2023-05-06T11:42:12.851Z,26.08
2023-05-06T11:43:12.944Z,28.23
2023-05-06T11:44:12.932Z,28.14
2023-05-06T11:45:13.072Z,28.48
2023-05-06T11:46:13.104Z,28.81
2023-05-06T11:47:13.124Z,25.22
2023-05-06T11:48:13.156Z,26.62
2023-05-06T11:49:13.243Z,31.51
2023-05-06T11:50:13.357Z,32.67
2023-05-06T11:51:13.360Z,33.39
2023-05-06T11:52:13.413Z,33.48
2023-05-06T11:53:13.463Z,31.48
2023-05-06T11:54:13.513Z,30.14
2023-05-06T11:55:13.568Z,33.77
2023-05-06T11:56:13.642Z,31.33
2023-05-06T11:57:13.690Z,30.46
2023-05-06T11:58:13.733Z,32.21
2023-05-06T11:59:13.852Z,33.60
2023-05-06T12:00:13.981Z,28.82
2023-05-06T12:01:14.056Z,32.48
2023-05-06T12:02:14.127Z,31.10
2023-05-06T12:03:14.177Z,35.09
2023-05-06T12:04:14.224Z,28.01
2023-05-06T12:05:14.190Z,31.35
2023-05-06T12:06:14.267Z,30.83
2023-05-06T12:07:14.339Z,33.66
2023-05-06T12:08:26.548Z,31.18
2023-05-06T12:09:15.395Z,31.25
2023-05-06T12:10:14.451Z,31.70
2023-05-06T12:11:14.363Z,32.38
2023-05-06T12:12:14.376Z,31.35
2023-05-06T12:13:14.393Z,32.90
2023-05-06T12:14:14.324Z,31.32
2023-05-06T12:15:14.354Z,31.76
2023-05-06T12:16:14.353Z,33.69
2023-05-06T12:17:14.415Z,36.43
2023-05-06T12:18:14.450Z,31.04
2023-05-06T12:19:14.464Z,29.82
2023-05-06T12:20:14.530Z,31.16
2023-05-06T12:21:19.293Z,31.35
2023-05-06T12:22:14.586Z,31.62
2023-05-06T12:23:14.605Z,32.15
2023-05-06T12:24:14.611Z,31.81
2023-05-06T12:25:14.570Z,29.49
2023-05-06T12:26:14.594Z,31.12
2023-05-06T12:27:14.636Z,32.45
2023-05-06T12:28:14.762Z,29.27
2023-05-06T12:29:14.761Z,33.67
2023-05-06T12:30:14.825Z,31.18
2023-05-06T12:31:14.923Z,30.83
2023-05-06T12:32:14.939Z,30.32
2023-05-06T12:33:15.074Z,31.61
2023-05-06T12:34:15.065Z,31.80
2023-05-06T12:35:15.108Z,35.56
2023-05-06T12:36:15.212Z,35.19
2023-05-06T12:37:15.222Z,28.27
2023-05-06T12:38:15.297Z,32.31
2023-05-06T12:39:15.359Z,33.84
2023-05-06T12:40:15.437Z,30.30
2023-05-06T12:41:15.490Z,32.66
2023-05-06T12:42:15.532Z,34.40
2023-05-06T12:43:15.583Z,33.07
2023-05-06T12:44:15.621Z,29.14
2023-05-06T12:45:15.688Z,36.01
2023-05-06T12:46:15.774Z,30.87
2023-05-06T12:47:15.771Z,28.42
2023-05-06T12:48:15.889Z,28.11
2023-05-06T12:49:15.951Z,33.64
2023-05-06T12:50:15.940Z,30.62
2023-05-06T12:51:16.029Z,31.57
2023-05-06T12:52:16.117Z,29.82
2023-05-06T12:53:16.120Z,32.63
2023-05-06T12:54:16.192Z,30.21
2023-05-06T12:55:16.228Z,30.33
2023-05-06T12:56:16.277Z,31.56
2023-05-06T12:57:16.358Z,30.03
2023-05-06T12:58:16.385Z,30.20
2023-05-06T12:59:16.414Z,30.54
2023-05-06T13:00:16.453Z,32.84
